This is the latest recevied weather packets stored in our database for station/object DM0MR. If no packets are shown the sender has not sent any weather packets the latest 10 day(s).
| Time | Temp. | Humidity | Pressure | Rain* | Wind** | Luminosity | Snow |
|---|---|---|---|---|---|---|---|
| 1777029979 | 15.56° C | 59% | 1010.6 hPa | 0 mm | - | - | - |
| 1777029079 | 15° C | 60% | 1010.6 hPa | 0 mm | - | - | - |
| 1777027278 | 15° C | 63% | 1011 hPa | 0 mm | - | - | - |
| 1777026378 | 13.89° C | 65% | 1011.1 hPa | 0 mm | - | - | - |
| 1777025478 | 11.67° C | 72% | 1011.2 hPa | 0 mm | - | - | - |
| 1777020977 | 9.44° C | 75% | 1011.3 hPa | 0 mm | - | - | - |
| 1777020081 | 9.44° C | 74% | 1011.3 hPa | 0 mm | - | - | - |
| 1777019179 | 9.44° C | 74% | 1011.4 hPa | 0 mm | - | - | - |
| 1777018279 | 10° C | 73% | 1011.2 hPa | 0 mm | - | - | - |
| 1777017378 | 9.44° C | 72% | 1011.1 hPa | 0 mm | - | - | - |
| 1777016478 | 10.56° C | 67% | 1011 hPa | 0 mm | - | - | - |
| 1777015577 | 13.33° C | 63% | 1010.9 hPa | 0 mm | - | - | - |
| 1777014678 | 10.56° C | 74% | 1011.2 hPa | 0 mm | - | - | - |
| 1777013778 | 8.33° C | 75% | 1011 hPa | 0 mm | - | - | - |
| 1777011977 | 12.22° C | 66% | 1010.8 hPa | 0 mm | - | - | - |
| 1777011079 | 12.22° C | 71% | 1010.8 hPa | 0 mm | - | - | - |
| 1777010178 | 10.56° C | 84% | 1010.9 hPa | 0 mm | - | - | - |
| 1777009277 | 9.44° C | 90% | 1011 hPa | 0 mm | - | - | - |
| 1777008378 | 2.22° C | 94% | 1010.9 hPa | 0 mm | - | - | - |
| 1777007478 | 2.22° C | 94% | 1010.7 hPa | 0 mm | - | - | - |
| 1777006578 | 1.11° C | 94% | 1010.8 hPa | 0 mm | - | - | - |
| 1777005678 | 1.11° C | 94% | 1010.6 hPa | 0 mm | - | - | - |
| 1777004779 | 1.11° C | 94% | 1010.6 hPa | 0 mm | - | - | - |
| 1777003878 | 1.67° C | 93% | 1010.5 hPa | 0 mm | - | - | - |
| 1777002078 | 1.67° C | 93% | 1010.4 hPa | 0 mm | - | - | - |
* Rain latest hour (hover to see other rain measurements)
** Current wind speed in m/s (hover to see current wind gust speed)